Time;durP1;ratioP1;P1;durP2;ratioP2;P2;SDS_P1;SDS_P2;PMS_P1;PMS_P2;Temp;Humidity;BMP_temperature;BMP_pressure;BME280_temperature;BME280_humidity;BME280_pressure;Samples;Min_cycle;Max_cycle;Signal;HPM_P1;HPM_P2
2024/02/09 00:00:05;;;;;;;6.55;3.80;;;;;;;;;;4997658;28;20053;-66
2024/02/09 00:02:31;;;;;;;6.80;4.20;;;;;;;;;;4979284;28;20034;-66
2024/02/09 00:04:57;;;;;;;8.40;4.13;;;;;;;;;;4982163;28;20505;-66
2024/02/09 00:07:24;;;;;;;6.25;3.83;;;;;;;;;;4992422;28;20093;-66
2024/02/09 00:09:50;;;;;;;6.38;3.95;;;;;;;;;;4975845;28;20143;-66
2024/02/09 00:12:20;;;;;;;6.45;4.05;;;;;;;;;;4983566;28;20664;-66
2024/02/09 00:14:48;;;;;;;7.53;4.80;;;;;;;;;;4984866;28;20061;-66
2024/02/09 00:17:14;;;;;;;8.25;4.13;;;;;;;;;;4990676;28;20430;-66
2024/02/09 00:19:41;;;;;;;6.88;3.80;;;;;;;;;;4984981;28;20470;-66
2024/02/09 00:22:07;;;;;;;9.40;4.70;;;;;;;;;;4990368;28;20046;-66
2024/02/09 00:24:33;;;;;;;6.63;4.15;;;;;;;;;;4991308;28;20057;-66
2024/02/09 00:27:00;;;;;;;6.22;3.75;;;;;;;;;;4997014;28;20070;-66
2024/02/09 00:29:26;;;;;;;6.57;4.00;;;;;;;;;;4973048;28;20058;-66
2024/02/09 00:31:53;;;;;;;7.82;4.30;;;;;;;;;;4958307;28;20074;-66
2024/02/09 00:34:19;;;;;;;8.13;4.20;;;;;;;;;;4988671;28;20128;-66
2024/02/09 00:36:47;;;;;;;8.48;4.50;;;;;;;;;;4986375;28;20089;-66
2024/02/09 00:39:14;;;;;;;7.30;4.30;;;;;;;;;;4985098;28;20050;-66
2024/02/09 00:41:41;;;;;;;8.10;4.13;;;;;;;;;;4997232;28;20038;-66
2024/02/09 00:44:07;;;;;;;9.02;4.22;;;;;;;;;;4980814;28;20473;-66
2024/02/09 00:46:33;;;;;;;8.48;4.18;;;;;;;;;;4980966;28;20046;-66
2024/02/09 00:49:02;;;;;;;7.82;4.50;;;;;;;;;;4976458;28;20049;-66
2024/02/09 00:51:30;;;;;;;7.50;4.72;;;;;;;;;;4982218;28;20053;-66
2024/02/09 00:53:57;;;;;;;7.80;4.85;;;;;;;;;;4986488;28;20062;-66
2024/02/09 00:56:23;;;;;;;7.38;4.72;;;;;;;;;;4991534;28;20042;-66
2024/02/09 00:58:49;;;;;;;7.80;4.75;;;;;;;;;;4957542;28;20490;-66
2024/02/09 01:01:16;;;;;;;8.80;4.72;;;;;;;;;;4979157;28;20065;-66
2024/02/09 01:03:42;;;;;;;6.93;4.30;;;;;;;;;;4967642;28;20057;-66
2024/02/09 01:06:08;;;;;;;7.95;4.65;;;;;;;;;;4978813;28;20141;-66
2024/02/09 01:08:34;;;;;;;7.60;4.72;;;;;;;;;;4989938;28;20066;-66
2024/02/09 01:11:01;;;;;;;8.15;4.70;;;;;;;;;;4989078;28;20557;-66
2024/02/09 02:46:27;;;;;;;6.50;3.75;;;;;;;;;;4984071;28;20047;-66
2024/02/09 03:05:25;;;;;;;9.27;3.80;;;;;;;;;;4995409;28;20189;-66
2024/02/09 03:07:53;;;;;;;8.07;4.32;;;;;;;;;;4982660;28;20189;-66
2024/02/09 03:10:19;;;;;;;8.68;4.63;;;;;;;;;;4989283;28;20110;-66
2024/02/09 03:12:45;;;;;;;7.88;4.55;;;;;;;;;;4984198;28;20042;-66
2024/02/09 03:15:14;;;;;;;9.48;4.68;;;;;;;;;;4985181;28;20092;-66
2024/02/09 03:17:41;;;;;;;7.75;4.28;;;;;;;;;;4988075;28;20045;-66
2024/02/09 03:20:08;;;;;;;8.57;5.00;;;;;;;;;;4991238;28;20053;-66
2024/02/09 03:22:35;;;;;;;8.82;4.53;;;;;;;;;;5000015;28;20129;-66
2024/02/09 03:25:03;;;;;;;8.48;4.60;;;;;;;;;;4981759;28;20124;-66
2024/02/09 03:27:31;;;;;;;8.15;4.45;;;;;;;;;;4985204;28;21123;-66
2024/02/09 03:29:59;;;;;;;9.85;5.38;;;;;;;;;;4984657;28;20096;-66
2024/02/09 03:32:27;;;;;;;8.07;4.38;;;;;;;;;;4997039;28;20046;-66
2024/02/09 03:34:53;;;;;;;8.18;4.80;;;;;;;;;;4984667;28;20046;-66
2024/02/09 03:37:20;;;;;;;9.57;4.80;;;;;;;;;;4987685;28;20046;-66
2024/02/09 03:39:47;;;;;;;8.23;4.50;;;;;;;;;;4986717;28;20067;-66
2024/02/09 03:42:13;;;;;;;8.63;4.82;;;;;;;;;;4999715;28;20370;-66
2024/02/09 03:44:41;;;;;;;7.53;4.03;;;;;;;;;;5003196;28;20045;-66
2024/02/09 03:47:07;;;;;;;9.88;4.82;;;;;;;;;;4997764;28;20121;-66
2024/02/09 03:49:33;;;;;;;9.27;4.95;;;;;;;;;;5000039;28;20457;-66
2024/02/09 03:52:00;;;;;;;9.18;4.93;;;;;;;;;;4987805;28;20050;-66
2024/02/09 03:54:26;;;;;;;9.32;4.68;;;;;;;;;;4995357;28;20050;-66
2024/02/09 03:56:52;;;;;;;8.90;4.05;;;;;;;;;;4968615;28;20055;-66
2024/02/09 03:59:18;;;;;;;9.70;4.50;;;;;;;;;;5000789;28;20203;-66
2024/02/09 04:01:45;;;;;;;7.95;4.38;;;;;;;;;;4982887;28;20053;-66
2024/02/09 04:04:11;;;;;;;10.05;4.65;;;;;;;;;;4990633;28;20046;-66
2024/02/09 04:06:39;;;;;;;10.32;4.72;;;;;;;;;;4996725;28;20085;-66
2024/02/09 04:09:05;;;;;;;11.10;4.28;;;;;;;;;;4986724;28;20057;-66
2024/02/09 04:11:31;;;;;;;9.10;4.30;;;;;;;;;;4985496;28;20037;-66
2024/02/09 04:13:58;;;;;;;9.48;4.53;;;;;;;;;;4988896;28;20077;-66
2024/02/09 04:16:24;;;;;;;7.07;4.07;;;;;;;;;;4987549;28;20053;-66
2024/02/09 04:18:50;;;;;;;9.82;4.75;;;;;;;;;;4979145;28;20047;-66
2024/02/09 04:21:16;;;;;;;10.23;4.75;;;;;;;;;;4986955;28;20124;-66
2024/02/09 04:23:43;;;;;;;8.32;4.15;;;;;;;;;;4970878;28;20046;-66
2024/02/09 04:26:09;;;;;;;9.50;4.63;;;;;;;;;;4992098;28;20696;-66
2024/02/09 04:28:36;;;;;;;8.80;4.70;;;;;;;;;;4987166;28;20061;-66
2024/02/09 04:31:03;;;;;;;10.80;4.82;;;;;;;;;;4983976;28;20444;-66
2024/02/09 04:33:31;;;;;;;9.63;4.68;;;;;;;;;;4987499;28;20046;-66
2024/02/09 04:35:58;;;;;;;11.32;4.93;;;;;;;;;;4992575;28;20046;-66
2024/02/09 04:38:24;;;;;;;9.15;4.55;;;;;;;;;;4998092;28;20058;-67
2024/02/09 04:40:51;;;;;;;8.13;4.43;;;;;;;;;;4979836;28;20449;-66
2024/02/09 04:43:17;;;;;;;10.50;4.97;;;;;;;;;;4984643;28;20082;-66
2024/02/09 04:45:45;;;;;;;10.55;4.85;;;;;;;;;;4976717;28;20065;-66
2024/02/09 04:48:12;;;;;;;9.18;4.60;;;;;;;;;;4986676;28;20045;-66
2024/02/09 04:50:38;;;;;;;10.13;4.63;;;;;;;;;;4991858;28;20058;-66
2024/02/09 04:53:04;;;;;;;12.20;5.80;;;;;;;;;;4994496;28;20038;-66
2024/02/09 04:55:31;;;;;;;9.32;4.82;;;;;;;;;;4994506;28;20077;-66
2024/02/09 04:57:57;;;;;;;9.68;4.65;;;;;;;;;;4986452;28;20212;-66
2024/02/09 05:00:24;;;;;;;11.77;5.10;;;;;;;;;;4991545;28;20050;-66
2024/02/09 05:02:51;;;;;;;10.95;5.18;;;;;;;;;;4997398;28;20049;-66
2024/02/09 05:05:18;;;;;;;12.40;6.15;;;;;;;;;;4971971;28;20141;-66
2024/02/09 05:07:45;;;;;;;11.80;5.97;;;;;;;;;;4982975;28;20050;-66
2024/02/09 05:10:11;;;;;;;11.90;5.53;;;;;;;;;;4991230;28;20078;-66
2024/02/09 05:12:37;;;;;;;14.57;6.07;;;;;;;;;;4980018;28;20053;-66
2024/02/09 05:15:04;;;;;;;12.45;6.50;;;;;;;;;;4993774;28;20057;-66
2024/02/09 05:17:30;;;;;;;12.20;5.93;;;;;;;;;;4997133;28;20555;-66
2024/02/09 05:19:58;;;;;;;13.02;5.68;;;;;;;;;;4986538;28;20038;-66
2024/02/09 05:22:24;;;;;;;13.93;5.85;;;;;;;;;;4987884;28;20034;-66
2024/02/09 05:24:50;;;;;;;13.43;5.68;;;;;;;;;;4981431;28;20054;-67
2024/02/09 05:27:20;;;;;;;12.95;5.93;;;;;;;;;;4984181;28;20041;-66
2024/02/09 05:29:46;;;;;;;12.35;5.55;;;;;;;;;;4982727;28;20046;-66
2024/02/09 05:32:12;;;;;;;13.48;6.03;;;;;;;;;;5000604;28;20129;-66
2024/02/09 05:34:43;;;;;;;14.80;6.00;;;;;;;;;;5001712;28;20058;-66
2024/02/09 05:37:10;;;;;;;13.13;6.13;;;;;;;;;;4992519;28;20100;-66
2024/02/09 05:39:36;;;;;;;15.80;6.78;;;;;;;;;;4986541;28;20057;-66
2024/02/09 05:42:03;;;;;;;15.10;6.60;;;;;;;;;;4996376;28;20504;-66
2024/02/09 05:44:29;;;;;;;17.80;7.15;;;;;;;;;;4971364;28;20045;-66
2024/02/09 05:46:55;;;;;;;14.52;6.97;;;;;;;;;;4978362;28;20042;-66
2024/02/09 05:49:22;;;;;;;19.33;7.50;;;;;;;;;;4996504;28;20050;-66
2024/02/09 05:51:49;;;;;;;14.38;6.82;;;;;;;;;;4991375;28;20050;-66
2024/02/09 05:54:16;;;;;;;18.63;7.20;;;;;;;;;;4992904;28;20237;-66
2024/02/09 05:56:44;;;;;;;17.20;6.57;;;;;;;;;;4984922;28;20049;-66
2024/02/09 05:59:11;;;;;;;20.45;7.78;;;;;;;;;;4995395;28;20200;-66
2024/02/09 06:01:38;;;;;;;18.02;7.20;;;;;;;;;;4980867;28;20141;-66
2024/02/09 06:04:04;;;;;;;15.95;6.90;;;;;;;;;;4994823;28;21813;-66
2024/02/09 06:06:30;;;;;;;18.52;7.97;;;;;;;;;;4985993;28;20057;-66
2024/02/09 06:08:58;;;;;;;17.83;6.88;;;;;;;;;;4965339;28;20325;-66
2024/02/09 06:11:25;;;;;;;19.10;7.80;;;;;;;;;;4996176;28;20041;-66
2024/02/09 06:13:52;;;;;;;18.65;7.97;;;;;;;;;;4987700;28;20077;-66
2024/02/09 06:16:20;;;;;;;20.67;7.68;;;;;;;;;;4990201;28;20038;-66
2024/02/09 06:18:49;;;;;;;19.42;8.32;;;;;;;;;;4990457;28;20104;-66
2024/02/09 06:21:16;;;;;;;22.35;8.15;;;;;;;;;;4975957;28;20081;-66
2024/02/09 06:23:44;;;;;;;17.77;7.68;;;;;;;;;;4994050;28;20442;-66
2024/02/09 06:26:10;;;;;;;20.40;7.88;;;;;;;;;;4990537;28;20042;-66
2024/02/09 06:28:37;;;;;;;20.58;8.73;;;;;;;;;;4984432;28;20104;-66
2024/02/09 06:31:03;;;;;;;22.90;8.48;;;;;;;;;;4986454;28;20046;-66
2024/02/09 06:33:30;;;;;;;22.75;8.27;;;;;;;;;;4969349;28;20462;-66
2024/02/09 06:35:56;;;;;;;20.48;8.63;;;;;;;;;;4993560;28;20180;-66
2024/02/09 06:38:22;;;;;;;19.60;8.13;;;;;;;;;;4987677;28;21297;-66
2024/02/09 06:40:53;;;;;;;19.70;7.55;;;;;;;;;;4994238;28;20058;-66
2024/02/09 06:43:21;;;;;;;20.45;8.05;;;;;;;;;;4985963;28;20045;-66
2024/02/09 06:45:47;;;;;;;24.58;8.48;;;;;;;;;;4993866;28;20042;-66
2024/02/09 06:48:13;;;;;;;22.88;8.55;;;;;;;;;;4990824;28;20038;-66
2024/02/09 06:50:40;;;;;;;26.13;8.35;;;;;;;;;;4984250;28;20053;-66
2024/02/09 06:53:06;;;;;;;21.85;8.18;;;;;;;;;;4992274;28;20161;-66
2024/02/09 06:55:33;;;;;;;21.70;8.45;;;;;;;;;;4981177;28;20403;-66
2024/02/09 06:57:59;;;;;;;23.23;8.93;;;;;;;;;;4986454;28;20046;-66
2024/02/09 07:00:26;;;;;;;19.92;7.75;;;;;;;;;;4986701;28;20054;-67
2024/02/09 07:02:52;;;;;;;23.45;7.97;;;;;;;;;;4986170;28;20072;-66
2024/02/09 07:05:20;;;;;;;26.25;9.43;;;;;;;;;;4983685;28;20437;-66
2024/02/09 07:07:49;;;;;;;23.65;8.07;;;;;;;;;;4979576;28;20046;-65
2024/02/09 07:10:17;;;;;;;24.52;8.60;;;;;;;;;;4984573;28;20067;-67
2024/02/09 07:12:43;;;;;;;20.52;8.05;;;;;;;;;;4986346;28;20143;-66
2024/02/09 07:15:10;;;;;;;28.17;8.25;;;;;;;;;;4990478;28;20073;-66
2024/02/09 07:17:36;;;;;;;30.73;9.75;;;;;;;;;;4986554;28;20042;-68
2024/02/09 07:20:03;;;;;;;25.30;9.35;;;;;;;;;;4989464;28;20073;-67
2024/02/09 07:22:30;;;;;;;22.77;8.50;;;;;;;;;;4985949;28;20561;-67
2024/02/09 07:24:56;;;;;;;29.52;8.68;;;;;;;;;;4965754;28;20042;-66
2024/02/09 07:27:22;;;;;;;29.40;9.88;;;;;;;;;;4985128;28;20489;-66
2024/02/09 07:29:48;;;;;;;27.92;9.93;;;;;;;;;;4999232;28;20294;-66
2024/02/09 07:32:15;;;;;;;23.77;9.40;;;;;;;;;;4982193;28;20045;-66
2024/02/09 07:34:41;;;;;;;32.90;10.32;;;;;;;;;;4998102;28;20053;-67
2024/02/09 07:37:10;;;;;;;32.05;11.13;;;;;;;;;;4979666;28;20525;-66
2024/02/09 07:39:36;;;;;;;29.92;10.38;;;;;;;;;;4995620;28;20498;-67
2024/02/09 07:42:04;;;;;;;33.28;11.15;;;;;;;;;;4987436;28;20430;-66
2024/02/09 07:44:31;;;;;;;34.60;11.38;;;;;;;;;;4999654;28;20057;-66
2024/02/09 07:46:57;;;;;;;33.58;10.63;;;;;;;;;;4990281;28;20597;-67
2024/02/09 07:49:26;;;;;;;38.45;10.95;;;;;;;;;;5012369;28;20379;-66
2024/02/09 07:51:53;;;;;;;41.83;11.90;;;;;;;;;;4993599;28;20141;-66
2024/02/09 07:54:21;;;;;;;39.83;11.77;;;;;;;;;;4996344;28;20049;-66
2024/02/09 07:56:48;;;;;;;35.97;11.45;;;;;;;;;;4969000;28;20053;-66
2024/02/09 07:59:14;;;;;;;36.88;11.60;;;;;;;;;;4992904;28;20343;-66
2024/02/09 08:01:41;;;;;;;53.67;13.07;;;;;;;;;;4988592;28;20282;-68
2024/02/09 08:04:08;;;;;;;38.95;12.02;;;;;;;;;;4982806;28;20491;-66
2024/02/09 08:06:35;;;;;;;49.65;12.55;;;;;;;;;;4988065;28;20108;-67
2024/02/09 08:09:01;;;;;;;45.38;14.32;;;;;;;;;;4987577;28;20052;-67
2024/02/09 08:11:27;;;;;;;43.25;12.77;;;;;;;;;;4994043;28;20042;-69
2024/02/09 08:13:54;;;;;;;41.08;12.85;;;;;;;;;;4993700;28;20049;-67
2024/02/09 08:16:22;;;;;;;46.20;12.38;;;;;;;;;;4983951;28;20049;-67
2024/02/09 08:18:49;;;;;;;39.17;19.23;;;;;;;;;;4968023;28;20056;-68
2024/02/09 08:21:17;;;;;;;39.50;12.02;;;;;;;;;;4988526;28;20089;-66
2024/02/09 08:23:47;;;;;;;45.05;18.70;;;;;;;;;;4997849;28;20052;-66
2024/02/09 08:26:13;;;;;;;54.00;23.42;;;;;;;;;;4986768;28;20513;-66
2024/02/09 08:28:43;;;;;;;54.92;22.10;;;;;;;;;;4995879;28;20082;-67
2024/02/09 08:31:13;;;;;;;51.05;23.48;;;;;;;;;;4996622;28;20049;-66
2024/02/09 08:33:40;;;;;;;53.63;26.83;;;;;;;;;;4984700;28;20064;-68
2024/02/09 08:36:06;;;;;;;53.90;16.80;;;;;;;;;;4985583;28;20063;-68
2024/02/09 08:38:33;;;;;;;59.10;16.40;;;;;;;;;;4985459;28;20279;-69
2024/02/09 08:40:59;;;;;;;58.80;26.50;;;;;;;;;;4985187;28;20053;-67
2024/02/09 08:43:25;;;;;;;61.78;29.35;;;;;;;;;;4970532;28;20050;-67
2024/02/09 08:45:51;;;;;;;56.88;25.55;;;;;;;;;;4974576;28;20050;-68
2024/02/09 08:48:18;;;;;;;54.25;15.68;;;;;;;;;;4975017;28;20042;-67
2024/02/09 08:50:44;;;;;;;58.42;15.35;;;;;;;;;;4976786;28;20046;-68
2024/02/09 08:53:11;;;;;;;59.78;16.88;;;;;;;;;;4982786;28;20398;-68
2024/02/09 08:55:37;;;;;;;56.45;16.38;;;;;;;;;;4983672;28;20565;-68
2024/02/09 08:58:04;;;;;;;72.88;17.92;;;;;;;;;;4976253;28;20078;-67
2024/02/09 09:00:31;;;;;;;63.03;16.98;;;;;;;;;;4984698;28;20053;-66
2024/02/09 09:02:57;;;;;;;64.35;17.17;;;;;;;;;;4982638;28;20042;-67
2024/02/09 09:05:23;;;;;;;80.00;19.15;;;;;;;;;;4972965;28;20113;-66
2024/02/09 09:07:49;;;;;;;71.05;18.80;;;;;;;;;;4980192;28;20506;-67
2024/02/09 09:10:15;;;;;;;75.07;34.25;;;;;;;;;;4960647;28;20050;-66
2024/02/09 09:12:42;;;;;;;74.97;19.58;;;;;;;;;;4979659;28;20042;-66
2024/02/09 09:15:09;;;;;;;65.72;19.17;;;;;;;;;;4979609;28;20038;-70
2024/02/09 09:17:35;;;;;;;56.53;19.67;;;;;;;;;;4980109;28;20054;-70
2024/02/09 09:20:03;;;;;;;69.18;19.85;;;;;;;;;;4979137;28;20050;-70
2024/02/09 09:22:31;;;;;;;62.05;19.02;;;;;;;;;;4977788;28;20046;-71
2024/02/09 09:24:57;;;;;;;68.05;19.25;;;;;;;;;;4977309;28;20584;-70
2024/02/09 09:27:23;;;;;;;57.88;18.67;;;;;;;;;;4979970;28;20049;-67
2024/02/09 09:29:53;;;;;;;78.13;20.90;;;;;;;;;;4974399;28;20082;-68
2024/02/09 09:32:20;;;;;;;68.32;21.77;;;;;;;;;;4980604;28;20220;-69
2024/02/09 09:34:48;;;;;;;83.57;23.25;;;;;;;;;;4981639;28;20376;-68
2024/02/09 09:37:14;;;;;;;65.35;22.60;;;;;;;;;;4976786;28;20054;-68
2024/02/09 09:39:40;;;;;;;65.35;22.92;;;;;;;;;;4984971;28;20375;-69
2024/02/09 09:42:07;;;;;;;76.30;24.77;;;;;;;;;;4982696;28;20489;-69
2024/02/09 09:44:33;;;;;;;60.80;23.75;;;;;;;;;;4986786;28;20050;-68
2024/02/09 09:47:00;;;;;;;68.95;24.48;;;;;;;;;;4977519;28;20502;-68
2024/02/09 09:49:27;;;;;;;58.28;22.83;;;;;;;;;;4983216;28;20456;-68
2024/02/09 09:51:58;;;;;;;69.63;25.10;;;;;;;;;;4983246;28;20042;-68
2024/02/09 09:54:27;;;;;;;54.63;24.15;;;;;;;;;;4980854;28;20136;-68
2024/02/09 09:56:54;;;;;;;64.03;25.45;;;;;;;;;;4983788;28;20043;-68
2024/02/09 09:59:20;;;;;;;59.20;24.35;;;;;;;;;;4994541;28;20481;-69
2024/02/09 10:01:49;;;;;;;51.60;24.02;;;;;;;;;;4975743;28;20076;-69
2024/02/09 10:04:15;;;;;;;57.60;22.73;;;;;;;;;;4983090;28;20177;-68
2024/02/09 10:06:42;;;;;;;52.50;23.08;;;;;;;;;;4978381;28;20054;-68
2024/02/09 10:09:09;;;;;;;52.20;22.92;;;;;;;;;;4963168;28;20042;-69
2024/02/09 10:11:37;;;;;;;51.90;21.55;;;;;;;;;;4979474;28;20120;-68
2024/02/09 10:14:20;;;;;;;54.65;22.85;;;;;;;;;;4982020;28;20066;-68
2024/02/09 10:16:46;;;;;;;54.22;22.55;;;;;;;;;;4982162;28;20105;-67
2024/02/09 10:19:13;;;;;;;42.63;19.75;;;;;;;;;;4973989;28;20216;-68
2024/02/09 10:21:40;;;;;;;39.85;19.08;;;;;;;;;;4980884;28;20046;-69
2024/02/09 10:24:06;;;;;;;36.58;19.98;;;;;;;;;;4975108;28;20049;-68
2024/02/09 10:26:33;;;;;;;40.72;19.17;;;;;;;;;;4984542;28;20061;-69
2024/02/09 10:28:59;;;;;;;40.67;19.00;;;;;;;;;;4978587;28;20641;-67
2024/02/09 10:31:28;;;;;;;37.95;17.65;;;;;;;;;;4978830;28;20098;-67
2024/02/09 10:33:58;;;;;;;31.58;18.13;;;;;;;;;;4978187;28;20065;-68
2024/02/09 10:36:24;;;;;;;39.85;19.90;;;;;;;;;;4979743;28;20134;-67
2024/02/09 10:38:51;;;;;;;38.28;18.98;;;;;;;;;;4977033;28;20097;-70
2024/02/09 10:41:18;;;;;;;35.55;18.40;;;;;;;;;;4979570;28;20049;-67
2024/02/09 10:43:47;;;;;;;38.72;19.30;;;;;;;;;;4985351;28;20073;-67
2024/02/09 10:46:18;;;;;;;42.00;19.20;;;;;;;;;;4986908;28;20051;-66
2024/02/09 10:48:47;;;;;;;41.15;18.70;;;;;;;;;;4983695;28;20140;-66
2024/02/09 10:51:17;;;;;;;40.03;19.63;;;;;;;;;;4985727;28;20081;-73
2024/02/09 10:53:52;;;;;;;39.55;19.65;;;;;;;;;;4986869;28;20066;-69
2024/02/09 10:56:19;;;;;;;40.60;18.55;;;;;;;;;;5006685;28;20486;-66
2024/02/09 10:58:46;;;;;;;43.92;18.77;;;;;;;;;;4994633;28;20039;-66
2024/02/09 11:01:12;;;;;;;44.33;19.40;;;;;;;;;;4994442;28;20092;-65
2024/02/09 11:03:39;;;;;;;43.42;19.45;;;;;;;;;;4998177;28;21270;-66
2024/02/09 11:06:05;;;;;;;39.90;18.65;;;;;;;;;;4995170;28;20073;-66
2024/02/09 11:08:35;;;;;;;39.45;18.30;;;;;;;;;;4998791;28;20443;-66
2024/02/09 11:11:02;;;;;;;37.05;17.45;;;;;;;;;;4986769;28;20512;-66
2024/02/09 11:13:28;;;;;;;37.42;17.20;;;;;;;;;;4996594;28;20045;-66
2024/02/09 11:15:56;;;;;;;33.20;17.73;;;;;;;;;;4986099;28;20080;-66
2024/02/09 11:18:22;;;;;;;37.63;16.95;;;;;;;;;;4986595;28;20042;-66
2024/02/09 11:20:49;;;;;;;29.60;15.63;;;;;;;;;;4999274;28;20460;-66
2024/02/09 11:23:15;;;;;;;39.72;16.25;;;;;;;;;;4999773;28;20045;-65
2024/02/09 11:25:45;;;;;;;35.88;16.40;;;;;;;;;;4994364;28;20049;-65
2024/02/09 11:28:13;;;;;;;32.03;17.23;;;;;;;;;;4996357;28;20071;-65
2024/02/09 11:30:41;;;;;;;34.80;17.75;;;;;;;;;;5004549;28;20136;-66
2024/02/09 11:33:09;;;;;;;40.00;17.33;;;;;;;;;;4995382;28;20034;-65
2024/02/09 11:35:35;;;;;;;34.30;17.85;;;;;;;;;;4995674;28;20500;-66
2024/02/09 11:38:02;;;;;;;37.30;17.45;;;;;;;;;;4982566;28;20081;-66
2024/02/09 11:40:28;;;;;;;38.53;17.85;;;;;;;;;;4990886;28;20052;-66
2024/02/09 11:42:54;;;;;;;38.72;18.00;;;;;;;;;;4999013;28;20053;-66
2024/02/09 11:45:21;;;;;;;36.38;18.00;;;;;;;;;;5001722;28;20453;-66
2024/02/09 11:47:47;;;;;;;34.08;17.85;;;;;;;;;;4997663;28;20050;-66
2024/02/09 11:50:21;;;;;;;33.88;17.63;;;;;;;;;;4991266;28;20431;-66
2024/02/09 11:52:47;;;;;;;30.65;17.85;;;;;;;;;;5003470;28;20100;-64
2024/02/09 11:55:14;;;;;;;36.10;18.33;;;;;;;;;;4987101;28;20057;-65
2024/02/09 11:57:41;;;;;;;30.35;16.77;;;;;;;;;;5007018;28;20682;-65
2024/02/09 12:00:08;;;;;;;37.00;17.33;;;;;;;;;;4994567;28;20051;-65
2024/02/09 12:02:34;;;;;;;32.65;16.92;;;;;;;;;;5006975;28;20108;-65
2024/02/09 12:05:00;;;;;;;30.85;15.88;;;;;;;;;;5014982;28;20099;-66
2024/02/09 12:07:26;;;;;;;30.52;16.48;;;;;;;;;;5003745;28;20046;-65
2024/02/09 12:09:54;;;;;;;26.75;14.52;;;;;;;;;;4991937;28;20046;-65
2024/02/09 12:12:22;;;;;;;27.98;15.20;;;;;;;;;;4993274;28;20116;-66
2024/02/09 12:14:48;;;;;;;22.23;13.40;;;;;;;;;;5010865;28;20574;-65
2024/02/09 12:17:14;;;;;;;24.45;14.35;;;;;;;;;;4997907;28;20040;-65
2024/02/09 12:19:42;;;;;;;23.55;14.45;;;;;;;;;;4989305;28;20050;-65
2024/02/09 12:22:08;;;;;;;30.27;15.45;;;;;;;;;;4996772;28;20037;-65
2024/02/09 12:24:36;;;;;;;27.65;15.50;;;;;;;;;;4996157;28;20057;-65
2024/02/09 12:27:14;;;;;;;24.75;14.18;;;;;;;;;;5007212;28;20117;-65
2024/02/09 12:29:41;;;;;;;24.65;13.52;;;;;;;;;;5004047;28;20486;-65
2024/02/09 12:32:10;;;;;;;34.70;15.38;;;;;;;;;;4992761;28;20088;-66
2024/02/09 12:34:44;;;;;;;29.55;14.50;;;;;;;;;;5005724;28;20129;-66
2024/02/09 12:37:15;;;;;;;22.67;12.98;;;;;;;;;;4993546;28;20438;-66
2024/02/09 12:39:42;;;;;;;21.73;13.88;;;;;;;;;;5006534;28;20045;-66
2024/02/09 12:42:09;;;;;;;22.17;12.48;;;;;;;;;;4992331;28;20042;-65
2024/02/09 12:44:38;;;;;;;19.80;11.98;;;;;;;;;;4992925;28;20052;-66
2024/02/09 12:47:04;;;;;;;24.92;11.10;;;;;;;;;;4996772;28;20081;-66
2024/02/09 12:49:33;;;;;;;21.05;10.90;;;;;;;;;;4995458;28;20099;-66
2024/02/09 12:52:00;;;;;;;21.90;11.85;;;;;;;;;;4986428;28;20049;-66
2024/02/09 12:54:26;;;;;;;23.80;11.55;;;;;;;;;;5009433;28;20133;-65
2024/02/09 12:56:53;;;;;;;16.70;10.35;;;;;;;;;;5019654;28;20725;-65
2024/02/09 12:59:19;;;;;;;19.83;10.38;;;;;;;;;;5011638;28;20054;-65
2024/02/09 13:01:46;;;;;;;15.98;9.90;;;;;;;;;;4998379;28;20142;-66
2024/02/09 13:04:12;;;;;;;20.73;9.57;;;;;;;;;;5013676;28;20045;-65
2024/02/09 13:06:38;;;;;;;23.52;9.68;;;;;;;;;;5013243;28;20047;-66
2024/02/09 13:09:05;;;;;;;14.32;8.32;;;;;;;;;;5017183;28;20464;-65
2024/02/09 13:11:31;;;;;;;16.02;8.88;;;;;;;;;;5014159;28;20392;-66
2024/02/09 13:13:59;;;;;;;20.08;9.10;;;;;;;;;;5000999;28;20104;-65
2024/02/09 13:16:26;;;;;;;14.93;7.35;;;;;;;;;;4997148;28;20046;-66
2024/02/09 13:18:52;;;;;;;17.45;7.82;;;;;;;;;;4995971;28;20041;-66
2024/02/09 13:21:20;;;;;;;16.25;7.88;;;;;;;;;;5003003;28;20039;-65
2024/02/09 13:23:47;;;;;;;13.43;7.60;;;;;;;;;;4998954;28;20133;-66
2024/02/09 13:26:15;;;;;;;14.00;7.47;;;;;;;;;;4984584;28;20144;-66
2024/02/09 13:28:42;;;;;;;17.17;8.13;;;;;;;;;;5001316;28;20120;-66
2024/02/09 13:31:10;;;;;;;13.27;7.28;;;;;;;;;;5001588;28;20057;-66
2024/02/09 13:33:37;;;;;;;12.52;6.88;;;;;;;;;;4993322;28;20125;-66
2024/02/09 13:36:07;;;;;;;15.52;8.63;;;;;;;;;;4989187;28;20108;-65
2024/02/09 13:38:36;;;;;;;18.63;7.70;;;;;;;;;;4980559;28;20454;-66
2024/02/09 13:41:02;;;;;;;17.27;7.53;;;;;;;;;;4985064;28;20084;-66
2024/02/09 13:43:29;;;;;;;16.20;7.20;;;;;;;;;;4993179;28;20050;-66
2024/02/09 13:45:56;;;;;;;17.50;7.90;;;;;;;;;;4988490;28;20058;-65
2024/02/09 13:48:23;;;;;;;15.20;7.05;;;;;;;;;;4992287;28;20041;-66
2024/02/09 13:50:49;;;;;;;22.05;8.07;;;;;;;;;;4989262;28;20454;-66
2024/02/09 13:53:17;;;;;;;15.73;8.05;;;;;;;;;;4992603;28;20038;-65
2024/02/09 13:55:43;;;;;;;22.25;8.77;;;;;;;;;;4977089;28;20050;-65
2024/02/09 13:58:11;;;;;;;14.95;7.88;;;;;;;;;;4989648;28;20440;-65
2024/02/09 14:00:39;;;;;;;15.38;7.57;;;;;;;;;;4985923;28;20494;-66
2024/02/09 14:03:05;;;;;;;15.65;7.72;;;;;;;;;;4994174;28;20108;-66
2024/02/09 14:05:32;;;;;;;20.20;8.00;;;;;;;;;;4992584;28;20501;-66
2024/02/09 14:07:58;;;;;;;17.10;8.32;;;;;;;;;;4996141;28;20132;-65
2024/02/09 14:10:24;;;;;;;16.95;7.65;;;;;;;;;;4983981;28;20053;-65
2024/02/09 14:12:52;;;;;;;15.45;7.47;;;;;;;;;;4968572;28;20471;-66
2024/02/09 14:15:18;;;;;;;18.50;8.20;;;;;;;;;;4994836;28;20530;-66
2024/02/09 14:17:45;;;;;;;18.25;10.65;;;;;;;;;;5010316;28;20034;-65
2024/02/09 14:20:13;;;;;;;17.23;8.52;;;;;;;;;;5010016;28;20045;-65
2024/02/09 14:22:41;;;;;;;16.48;8.57;;;;;;;;;;5011497;28;20117;-65
2024/02/09 14:25:09;;;;;;;17.13;8.68;;;;;;;;;;4998315;28;20038;-66
2024/02/09 14:27:37;;;;;;;20.83;9.65;;;;;;;;;;4999343;28;20057;-66
2024/02/09 14:30:03;;;;;;;14.70;8.23;;;;;;;;;;4999646;28;20133;-66
2024/02/09 14:32:32;;;;;;;11.30;7.50;;;;;;;;;;5011235;28;20268;-66
2024/02/09 14:34:58;;;;;;;17.17;6.70;;;;;;;;;;4991781;28;20652;-66
2024/02/09 14:37:27;;;;;;;18.02;7.18;;;;;;;;;;4995882;28;20371;-66
2024/02/09 14:39:54;;;;;;;10.50;5.07;;;;;;;;;;4995422;28;20046;-66
2024/02/09 14:42:24;;;;;;;12.57;4.90;;;;;;;;;;5012830;28;20041;-65
2024/02/09 14:44:50;;;;;;;13.13;4.35;;;;;;;;;;4998741;28;20109;-66
2024/02/09 14:47:17;;;;;;;10.45;3.60;;;;;;;;;;5012300;28;20370;-66
2024/02/09 14:49:47;;;;;;;8.00;3.63;;;;;;;;;;4992260;28;20156;-66
2024/02/09 14:52:14;;;;;;;12.35;3.42;;;;;;;;;;4979044;28;20473;-65
2024/02/09 14:54:40;;;;;;;11.55;3.30;;;;;;;;;;4995467;28;20084;-66
2024/02/09 14:57:07;;;;;;;10.32;3.30;;;;;;;;;;5008405;28;20038;-66
2024/02/09 14:59:34;;;;;;;10.73;3.53;;;;;;;;;;4995672;28;20057;-66
2024/02/09 15:02:00;;;;;;;7.95;3.38;;;;;;;;;;5001375;28;20718;-66
2024/02/09 15:04:26;;;;;;;9.90;3.60;;;;;;;;;;5002085;28;20053;-66
2024/02/09 15:06:53;;;;;;;15.52;3.90;;;;;;;;;;4999021;28;20058;-66
2024/02/09 15:09:20;;;;;;;9.95;3.13;;;;;;;;;;4986909;28;20042;-66
2024/02/09 15:11:47;;;;;;;10.32;3.08;;;;;;;;;;5000317;28;20049;-66
2024/02/09 15:14:13;;;;;;;6.82;2.97;;;;;;;;;;4980601;28;20223;-66
2024/02/09 15:16:41;;;;;;;9.75;3.03;;;;;;;;;;4996335;28;20467;-66
2024/02/09 15:19:11;;;;;;;7.75;2.55;;;;;;;;;;4993279;28;20272;-66
2024/02/09 15:21:38;;;;;;;8.10;2.40;;;;;;;;;;4991078;28;20225;-66
2024/02/09 15:24:05;;;;;;;9.25;2.28;;;;;;;;;;4989228;28;20046;-66
2024/02/09 15:26:32;;;;;;;7.30;2.15;;;;;;;;;;4961267;28;20046;-66
2024/02/09 15:28:59;;;;;;;6.00;2.60;;;;;;;;;;4993681;28;20062;-66
2024/02/09 15:31:25;;;;;;;5.47;2.40;;;;;;;;;;4992041;28;20109;-66
2024/02/09 15:33:51;;;;;;;8.38;2.70;;;;;;;;;;4984070;28;20497;-66
2024/02/09 15:36:18;;;;;;;6.55;2.03;;;;;;;;;;4973962;28;20403;-66
2024/02/09 15:38:44;;;;;;;9.23;2.65;;;;;;;;;;4971999;28;20063;-66
2024/02/09 15:41:16;;;;;;;7.97;2.25;;;;;;;;;;4972199;28;20039;-66
2024/02/09 15:43:42;;;;;;;6.35;2.67;;;;;;;;;;4973846;28;20050;-66
2024/02/09 15:46:15;;;;;;;8.43;2.40;;;;;;;;;;4973212;28;20166;-66
2024/02/09 15:48:44;;;;;;;11.68;3.05;;;;;;;;;;4972376;28;20069;-66
2024/02/09 15:51:10;;;;;;;10.45;3.25;;;;;;;;;;4968531;28;20417;-66
2024/02/09 15:53:36;;;;;;;6.43;2.80;;;;;;;;;;4976235;28;20105;-66
2024/02/09 15:56:02;;;;;;;9.65;3.33;;;;;;;;;;4974086;28;20035;-66
2024/02/09 15:58:29;;;;;;;7.47;2.78;;;;;;;;;;4988664;28;20045;-66
2024/02/09 16:00:58;;;;;;;11.07;3.78;;;;;;;;;;4974978;28;20073;-66
2024/02/09 16:03:24;;;;;;;8.27;3.10;;;;;;;;;;4978252;28;20061;-66
2024/02/09 16:05:50;;;;;;;8.73;3.58;;;;;;;;;;4976449;28;20043;-66
2024/02/09 16:08:17;;;;;;;9.27;3.42;;;;;;;;;;4980538;28;20133;-66
2024/02/09 16:10:46;;;;;;;6.78;2.92;;;;;;;;;;4990524;28;20076;-66
2024/02/09 16:13:13;;;;;;;7.80;3.38;;;;;;;;;;4975822;28;20097;-66
2024/02/09 16:15:42;;;;;;;8.70;3.25;;;;;;;;;;4979488;28;20575;-66